createdAt,value
2019-02-15T00:00:37.493Z,-0.40
2019-02-15T00:03:08.060Z,-0.40
2019-02-15T00:05:39.274Z,-0.40
2019-02-15T00:08:08.884Z,-0.50
2019-02-15T00:10:38.163Z,-0.50
2019-02-15T00:13:13.366Z,-0.50
2019-02-15T00:15:38.444Z,-0.50
2019-02-15T00:18:09.362Z,-0.50
2019-02-15T00:20:43.827Z,-0.60
2019-02-15T00:23:13.411Z,-0.60
2019-02-15T00:25:42.699Z,-0.60
2019-02-15T00:28:11.975Z,-0.70
2019-02-15T00:30:41.629Z,-0.70
2019-02-15T00:33:10.934Z,-0.60
2019-02-15T00:35:40.225Z,-0.70
2019-02-15T00:38:09.845Z,-0.70
2019-02-15T00:40:39.129Z,-0.70
2019-02-15T00:43:08.407Z,-0.70
2019-02-15T00:45:42.563Z,-0.60
2019-02-15T00:48:13.488Z,-0.60
2019-02-15T00:50:59.411Z,-0.60
2019-02-15T00:53:33.302Z,-0.60
2019-02-15T00:56:22.184Z,-0.70
2019-02-15T00:59:08.448Z,-0.70
2019-02-15T01:01:56.380Z,-0.70
2019-02-15T01:04:33.353Z,-0.70
2019-02-15T01:07:11.036Z,-0.70
2019-02-15T01:09:51.128Z,-0.70
2019-02-15T01:12:22.480Z,-0.80
2019-02-15T01:14:52.060Z,-0.90
2019-02-15T01:17:21.343Z,-0.90
2019-02-15T01:19:50.623Z,-0.90
2019-02-15T01:22:19.908Z,-0.90
2019-02-15T01:24:49.364Z,-0.80
2019-02-15T01:27:29.963Z,-0.80
2019-02-15T01:30:09.880Z,-0.80
2019-02-15T01:32:40.827Z,-0.90
2019-02-15T01:35:11.752Z,-0.80
2019-02-15T01:37:45.661Z,-0.90
2019-02-15T01:40:16.927Z,-0.90
2019-02-15T01:42:55.259Z,-0.90
2019-02-15T01:45:31.999Z,-0.80
2019-02-15T01:48:01.616Z,-0.90
2019-02-15T01:50:30.904Z,-0.90
2019-02-15T01:53:00.195Z,-0.90
2019-02-15T01:55:29.732Z,-0.90
2019-02-15T01:57:59.343Z,-0.90
2019-02-15T02:00:30.268Z,-1.00
2019-02-15T02:02:59.791Z,-1.00
2019-02-15T02:05:29.097Z,-0.90
2019-02-15T02:08:00.862Z,-1.00
2019-02-15T02:10:31.236Z,-1.10
2019-02-15T02:13:01.928Z,-1.10
2019-02-15T02:15:31.538Z,-1.10
2019-02-15T02:18:01.144Z,-1.10
2019-02-15T02:20:30.423Z,-1.20
2019-02-15T02:23:01.761Z,-1.20
2019-02-15T02:25:30.709Z,-1.20
2019-02-15T02:28:00.311Z,-1.10
2019-02-15T02:30:29.918Z,-1.00
2019-02-15T02:32:59.196Z,-1.00
2019-02-15T02:35:28.661Z,-1.10
2019-02-15T02:37:58.246Z,-1.10
2019-02-15T02:40:27.952Z,-1.10
2019-02-15T02:42:57.237Z,-1.10
2019-02-15T02:45:26.768Z,-1.10
2019-02-15T02:47:56.048Z,-1.20
2019-02-15T02:50:25.324Z,-1.10
2019-02-15T02:52:55.806Z,-1.20
2019-02-15T02:55:25.419Z,-1.20
2019-02-15T02:57:54.696Z,-1.20
2019-02-15T03:00:32.908Z,-1.30
2019-02-15T03:02:54.957Z,-1.30
2019-02-15T03:05:24.586Z,-1.30
2019-02-15T03:07:53.871Z,-1.40
2019-02-15T03:10:23.692Z,-1.40
2019-02-15T03:12:54.029Z,-1.40
2019-02-15T03:15:24.145Z,-1.40
2019-02-15T03:17:53.756Z,-1.40
2019-02-15T03:20:30.838Z,-1.50
2019-02-15T03:22:54.032Z,-1.40
2019-02-15T03:25:23.311Z,-1.40
2019-02-15T03:27:52.608Z,-1.40
2019-02-15T03:30:22.227Z,-1.40
2019-02-15T03:32:51.842Z,-1.40
2019-02-15T03:35:21.444Z,-1.30
2019-02-15T03:37:55.178Z,-1.20
2019-02-15T03:40:26.106Z,-1.20
2019-02-15T03:42:55.813Z,-1.30
2019-02-15T03:45:25.412Z,-1.30
2019-02-15T03:47:55.028Z,-1.30
2019-02-15T03:50:24.464Z,-1.40
2019-02-15T03:52:53.748Z,-1.50
2019-02-15T03:55:23.350Z,-1.60
2019-02-15T03:57:52.956Z,-1.60
2019-02-15T04:00:22.677Z,-1.70
2019-02-15T04:02:52.286Z,-1.70
2019-02-15T04:05:21.900Z,-1.70
2019-02-15T04:07:51.184Z,-1.70
2019-02-15T04:10:20.808Z,-1.70
2019-02-15T04:12:52.503Z,-1.70
2019-02-15T04:15:22.180Z,-1.70
2019-02-15T04:17:51.793Z,-1.70
2019-02-15T04:20:21.401Z,-1.60
2019-02-15T04:22:50.680Z,-1.70
2019-02-15T04:25:19.969Z,-1.70
2019-02-15T04:27:50.787Z,-1.70
2019-02-15T04:30:20.466Z,-1.70
2019-02-15T04:32:50.077Z,-1.70
2019-02-15T04:35:19.361Z,-1.70
2019-02-15T04:37:48.641Z,-1.60
2019-02-15T04:40:17.935Z,-1.70
2019-02-15T04:42:47.492Z,-1.70
2019-02-15T04:45:16.771Z,-1.70
2019-02-15T04:47:46.440Z,-1.70
2019-02-15T04:50:15.725Z,-1.70
2019-02-15T04:52:45.009Z,-1.70
2019-02-15T04:55:14.293Z,-1.70
2019-02-15T04:57:43.571Z,-1.80
2019-02-15T05:00:12.881Z,-1.80
2019-02-15T05:02:42.161Z,-1.80
2019-02-15T05:05:11.680Z,-1.80
2019-02-15T05:07:40.972Z,-1.80
2019-02-15T05:10:10.253Z,-1.80
2019-02-15T05:12:39.863Z,-1.80
2019-02-15T05:15:09.929Z,-1.80
2019-02-15T05:17:39.592Z,-1.80
2019-02-15T05:20:09.205Z,-1.80
2019-02-15T05:22:38.489Z,-1.90
2019-02-15T05:25:07.773Z,-1.90
2019-02-15T05:27:37.352Z,-1.90
2019-02-15T05:30:08.194Z,-1.90
2019-02-15T05:32:37.773Z,-1.90
2019-02-15T05:35:07.489Z,-2.00
2019-02-15T05:37:37.101Z,-2.00
2019-02-15T05:40:07.116Z,-2.00
2019-02-15T05:42:37.372Z,-2.00
2019-02-15T05:45:06.658Z,-2.10
2019-02-15T05:47:36.263Z,-2.10
2019-02-15T05:50:06.685Z,-2.10
2019-02-15T05:52:35.996Z,-2.10
2019-02-15T05:55:06.324Z,-2.10
2019-02-15T05:57:35.612Z,-2.20
2019-02-15T06:00:09.185Z,-2.20
2019-02-15T06:02:38.839Z,-2.10
2019-02-15T06:05:09.095Z,-2.20
2019-02-15T06:07:38.375Z,-2.20
2019-02-15T06:10:08.879Z,-2.20
2019-02-15T06:12:38.152Z,-2.20
2019-02-15T06:15:14.689Z,-2.20
2019-02-15T06:17:40.237Z,-2.20
2019-02-15T06:20:09.520Z,-2.20
2019-02-15T06:22:39.099Z,-2.20
2019-02-15T06:25:08.401Z,-2.20
2019-02-15T06:27:37.748Z,-2.20
2019-02-15T06:30:08.874Z,-2.20
2019-02-15T06:32:38.471Z,-2.20
2019-02-15T06:35:08.207Z,-2.10
2019-02-15T06:37:37.787Z,-2.10
2019-02-15T06:40:07.548Z,-2.10
2019-02-15T06:42:36.834Z,-2.20
2019-02-15T06:45:07.293Z,-2.20
2019-02-15T06:47:36.575Z,-2.20
2019-02-15T06:50:07.391Z,-2.20
2019-02-15T06:52:38.123Z,-2.20
2019-02-15T06:55:07.761Z,-2.20
2019-02-15T06:57:37.048Z,-2.20
2019-02-15T07:00:27.832Z,-2.20
2019-02-15T07:03:15.660Z,-2.10
2019-02-15T07:05:44.935Z,-2.10
2019-02-15T07:08:14.228Z,-2.00
2019-02-15T07:10:43.775Z,-1.90
2019-02-15T07:13:13.380Z,-1.60
2019-02-15T07:15:42.700Z,-1.50
2019-02-15T07:18:13.114Z,-1.40
2019-02-15T07:20:42.400Z,-1.30
2019-02-15T07:23:11.680Z,-1.30
2019-02-15T07:25:41.232Z,-1.20
2019-02-15T07:28:11.489Z,-1.20
2019-02-15T07:30:40.771Z,-1.30
2019-02-15T07:33:10.376Z,-1.30
2019-02-15T07:35:39.990Z,-1.30
2019-02-15T07:38:09.272Z,-1.20
2019-02-15T07:40:38.575Z,-1.10
2019-02-15T07:43:08.210Z,-1.10
2019-02-15T07:45:42.952Z,-1.00
2019-02-15T07:48:08.476Z,-1.00
2019-02-15T07:50:38.060Z,-1.00
2019-02-15T07:53:09.060Z,-0.90
2019-02-15T07:55:38.332Z,-0.90
2019-02-15T07:58:07.621Z,-0.80
2019-02-15T08:00:36.904Z,-0.70
2019-02-15T08:03:06.352Z,-0.60
2019-02-15T08:05:35.938Z,-0.50
2019-02-15T08:08:05.219Z,-0.40
2019-02-15T08:10:34.508Z,-0.30
2019-02-15T08:13:04.059Z,-0.20
2019-02-15T08:15:36.352Z,-0.20
2019-02-15T08:18:04.908Z,-0.10
2019-02-15T08:20:36.116Z,0.00
2019-02-15T08:23:05.392Z,0.10
2019-02-15T08:25:34.666Z,0.20
2019-02-15T08:28:05.193Z,0.30
2019-02-15T08:30:34.799Z,0.40
2019-02-15T08:33:04.088Z,0.50
2019-02-15T08:35:33.720Z,0.60
2019-02-15T08:38:03.332Z,0.70
2019-02-15T08:40:32.614Z,0.80
2019-02-15T08:43:02.384Z,1.00
2019-02-15T08:45:31.960Z,1.00
2019-02-15T08:48:01.572Z,1.20
2019-02-15T08:50:30.891Z,1.30
2019-02-15T08:53:00.491Z,1.40
2019-02-15T08:55:29.763Z,1.60
2019-02-15T08:57:59.059Z,1.80
2019-02-15T09:00:28.383Z,2.00
2019-02-15T09:02:57.660Z,2.30
2019-02-15T09:05:27.207Z,2.60
2019-02-15T09:07:56.488Z,2.90
2019-02-15T09:10:25.768Z,3.20
2019-02-15T09:12:55.046Z,3.60
2019-02-15T09:15:24.643Z,4.00
2019-02-15T09:17:53.950Z,4.50
2019-02-15T09:20:23.223Z,5.10
2019-02-15T09:22:53.392Z,5.80
2019-02-15T09:25:22.970Z,6.30
2019-02-15T09:28:10.343Z,6.50
2019-02-15T09:30:39.852Z,6.90
2019-02-15T09:33:09.403Z,7.10
2019-02-15T09:35:38.686Z,7.30
2019-02-15T09:38:08.228Z,7.80
2019-02-15T09:40:37.660Z,8.50
2019-02-15T09:43:06.938Z,8.90
2019-02-15T09:45:36.550Z,9.00
2019-02-15T09:48:05.815Z,9.70
2019-02-15T09:50:35.087Z,9.80
2019-02-15T09:53:04.375Z,9.60
2019-02-15T09:55:33.707Z,9.50
2019-02-15T09:58:02.987Z,9.50
2019-02-15T10:00:32.266Z,9.80
2019-02-15T10:03:01.559Z,9.80
2019-02-15T10:05:30.839Z,10.00
2019-02-15T10:08:00.190Z,10.10
2019-02-15T10:10:29.800Z,10.60
2019-02-15T10:12:59.064Z,10.70
2019-02-15T10:15:28.344Z,10.80
2019-02-15T10:17:57.623Z,11.30
2019-02-15T10:20:27.208Z,11.40
2019-02-15T10:22:57.368Z,11.40
2019-02-15T10:25:26.647Z,11.70
2019-02-15T10:27:55.950Z,11.70
2019-02-15T10:30:25.224Z,11.60
2019-02-15T10:32:54.499Z,11.60
2019-02-15T10:35:24.774Z,11.80
2019-02-15T10:37:54.396Z,12.00
2019-02-15T10:40:24.000Z,12.30
2019-02-15T10:42:53.293Z,12.90
2019-02-15T10:45:22.569Z,13.20
2019-02-15T10:47:51.867Z,13.40
2019-02-15T10:50:21.392Z,13.70
2019-02-15T10:52:50.925Z,14.00
2019-02-15T10:55:20.535Z,13.90
2019-02-15T10:57:51.477Z,14.00
2019-02-15T11:00:21.819Z,13.90
2019-02-15T11:02:51.103Z,14.30
2019-02-15T11:05:20.726Z,14.30
2019-02-15T11:07:50.331Z,14.60
2019-02-15T11:10:19.947Z,15.20
2019-02-15T11:12:49.559Z,15.40
2019-02-15T11:15:18.830Z,15.50
2019-02-15T11:17:49.492Z,15.70
2019-02-15T11:20:19.011Z,15.60
2019-02-15T11:22:48.614Z,15.60
2019-02-15T11:25:18.941Z,15.70
2019-02-15T11:27:48.560Z,15.90
2019-02-15T11:30:17.840Z,15.80
2019-02-15T11:32:47.120Z,15.90
2019-02-15T11:35:16.669Z,16.30
2019-02-15T11:37:45.948Z,16.80
2019-02-15T11:40:16.057Z,16.60
2019-02-15T11:42:45.608Z,16.20
2019-02-15T11:45:16.121Z,16.50
2019-02-15T11:47:45.416Z,16.80
2019-02-15T11:50:15.664Z,16.50
2019-02-15T11:52:45.276Z,16.40
2019-02-15T11:55:14.555Z,15.90
2019-02-15T11:57:43.837Z,15.70
2019-02-15T12:00:30.913Z,15.70
2019-02-15T12:03:00.208Z,15.50
2019-02-15T12:05:29.812Z,15.50
2019-02-15T12:07:59.087Z,15.90
2019-02-15T12:10:29.776Z,16.10
2019-02-15T12:12:59.356Z,16.20
2019-02-15T12:15:28.635Z,16.10
2019-02-15T12:17:58.174Z,16.20
2019-02-15T12:20:27.452Z,16.40
2019-02-15T12:22:57.079Z,16.70
2019-02-15T12:25:27.239Z,17.00
2019-02-15T12:27:56.818Z,17.20
2019-02-15T12:30:26.100Z,17.50
2019-02-15T12:32:55.635Z,17.40
2019-02-15T12:35:25.247Z,17.40
2019-02-15T12:37:54.514Z,17.90
2019-02-15T12:40:23.791Z,18.00
2019-02-15T12:42:53.362Z,17.90
2019-02-15T12:45:22.968Z,17.90
2019-02-15T12:47:52.235Z,18.20
2019-02-15T12:50:23.425Z,18.20
2019-02-15T12:52:52.697Z,18.00
2019-02-15T12:55:22.203Z,18.30
2019-02-15T12:57:51.506Z,18.30
2019-02-15T13:00:20.784Z,18.70
2019-02-15T13:02:50.074Z,18.80
2019-02-15T13:05:19.651Z,18.70
2019-02-15T13:07:49.269Z,18.90
2019-02-15T13:10:26.542Z,18.60
2019-02-15T13:12:56.162Z,18.80
2019-02-15T13:15:25.543Z,18.90
2019-02-15T13:17:54.838Z,19.10
2019-02-15T13:20:24.380Z,19.30
2019-02-15T13:22:53.681Z,19.20
2019-02-15T13:25:23.011Z,19.00
2019-02-15T13:27:54.547Z,19.10
2019-02-15T13:30:24.168Z,19.20
2019-02-15T13:32:53.440Z,19.30
2019-02-15T13:35:24.499Z,19.20
2019-02-15T13:37:53.798Z,19.20
2019-02-15T13:40:23.412Z,19.40
2019-02-15T13:42:53.037Z,19.30
2019-02-15T13:45:22.316Z,19.50
2019-02-15T13:47:51.719Z,20.00
2019-02-15T13:50:21.247Z,20.10
2019-02-15T13:52:50.515Z,19.90
2019-02-15T13:55:19.811Z,20.10
2019-02-15T13:57:49.367Z,20.10
2019-02-15T14:00:18.640Z,20.00
2019-02-15T14:02:47.924Z,19.80
2019-02-15T14:05:17.200Z,19.90
2019-02-15T14:07:46.482Z,20.10
2019-02-15T14:10:15.937Z,20.10
2019-02-15T14:12:45.239Z,20.30
2019-02-15T14:15:14.517Z,20.90
2019-02-15T14:17:45.490Z,22.20
2019-02-15T14:20:14.960Z,22.90
2019-02-15T14:22:44.230Z,24.00
2019-02-15T14:25:13.514Z,24.10
2019-02-15T14:27:43.712Z,24.70
2019-02-15T14:30:15.347Z,24.90
2019-02-15T14:32:44.607Z,25.70
2019-02-15T14:35:14.431Z,26.40
2019-02-15T14:37:43.709Z,27.10
2019-02-15T14:40:13.808Z,27.90
2019-02-15T14:42:43.144Z,28.60
2019-02-15T14:45:14.428Z,28.60
2019-02-15T14:47:53.944Z,28.30
2019-02-15T14:50:15.224Z,27.90
2019-02-15T14:52:44.503Z,28.50
2019-02-15T14:55:13.782Z,28.50
2019-02-15T14:57:44.329Z,28.60
2019-02-15T15:00:14.884Z,28.90
2019-02-15T15:02:44.330Z,28.40
2019-02-15T15:05:13.775Z,28.50
2019-02-15T15:07:43.067Z,28.30
2019-02-15T15:10:12.511Z,27.20
2019-02-15T15:12:41.790Z,26.70
2019-02-15T15:15:16.207Z,26.30
2019-02-15T15:17:46.544Z,26.60
2019-02-15T15:20:16.148Z,27.10
2019-02-15T15:22:45.760Z,27.30
2019-02-15T15:25:15.876Z,27.30
2019-02-15T15:27:45.496Z,26.80
2019-02-15T15:30:16.648Z,26.40
2019-02-15T15:32:45.930Z,26.10
2019-02-15T15:35:15.211Z,26.40
2019-02-15T15:37:44.491Z,26.50
2019-02-15T15:40:15.050Z,26.40
2019-02-15T15:42:44.588Z,25.70
2019-02-15T15:45:13.872Z,24.80
2019-02-15T15:47:55.256Z,25.00
2019-02-15T15:50:24.784Z,24.60
2019-02-15T15:52:54.397Z,24.50
2019-02-15T15:55:23.671Z,24.00
2019-02-15T15:57:52.948Z,23.40
2019-02-15T16:00:22.616Z,23.00
2019-02-15T16:02:51.887Z,22.90
2019-02-15T16:05:21.164Z,22.80
2019-02-15T16:07:50.837Z,22.60
2019-02-15T16:10:20.118Z,21.90
2019-02-15T16:12:49.396Z,20.90
2019-02-15T16:15:18.952Z,19.80
2019-02-15T16:17:48.258Z,18.80
2019-02-15T16:20:17.533Z,17.70
2019-02-15T16:22:47.310Z,16.40
2019-02-15T16:25:16.884Z,15.90
2019-02-15T16:27:46.168Z,15.90
2019-02-15T16:30:17.215Z,15.30
2019-02-15T16:32:46.484Z,14.40
2019-02-15T16:35:15.768Z,13.60
2019-02-15T16:37:45.378Z,12.90
2019-02-15T16:40:15.739Z,12.50
2019-02-15T16:42:45.099Z,12.20
2019-02-15T16:45:14.921Z,12.00
2019-02-15T16:47:44.195Z,11.80
2019-02-15T16:50:13.933Z,11.50
2019-02-15T16:52:43.588Z,11.30
2019-02-15T16:55:13.633Z,11.20
2019-02-15T16:57:43.010Z,11.10
2019-02-15T17:00:13.765Z,10.90
2019-02-15T17:02:43.082Z,10.80
2019-02-15T17:05:12.425Z,10.50
2019-02-15T17:07:43.400Z,10.40
2019-02-15T17:10:12.915Z,10.20
2019-02-15T17:12:42.197Z,10.20
2019-02-15T17:15:14.858Z,10.10
2019-02-15T17:17:44.127Z,10.10
2019-02-15T17:20:13.751Z,10.20
2019-02-15T17:22:43.027Z,10.10
2019-02-15T17:25:12.576Z,10.00
2019-02-15T17:27:41.982Z,9.80
2019-02-15T17:30:12.028Z,9.80
2019-02-15T17:32:43.031Z,9.70
2019-02-15T17:35:12.948Z,9.80
2019-02-15T17:37:42.218Z,9.80
2019-02-15T17:40:14.247Z,9.60
2019-02-15T17:42:44.556Z,9.40
2019-02-15T17:45:15.074Z,9.20
2019-02-15T17:47:44.698Z,9.00
2019-02-15T17:50:14.305Z,8.70
2019-02-15T17:52:43.916Z,8.60
2019-02-15T17:55:14.554Z,8.40
2019-02-15T17:57:44.264Z,8.20
2019-02-15T18:00:16.251Z,8.10
2019-02-15T18:02:46.152Z,8.00
2019-02-15T18:05:18.243Z,7.80
2019-02-15T18:08:07.165Z,7.60
2019-02-15T18:10:36.448Z,7.50
2019-02-15T18:13:05.732Z,7.40
2019-02-15T18:15:34.999Z,7.30
2019-02-15T18:18:04.333Z,7.30
2019-02-15T18:20:34.336Z,7.20
2019-02-15T18:23:03.942Z,7.20
2019-02-15T18:25:33.519Z,7.10
2019-02-15T18:28:03.996Z,6.90
2019-02-15T18:30:33.567Z,6.90
2019-02-15T18:33:04.615Z,6.80
2019-02-15T18:35:33.880Z,6.70
2019-02-15T18:38:03.166Z,6.60
2019-02-15T18:40:32.436Z,6.50
2019-02-15T18:43:01.721Z,6.40
2019-02-15T18:45:31.332Z,6.30
2019-02-15T18:48:00.950Z,6.30
2019-02-15T18:50:30.238Z,6.20
2019-02-15T18:52:59.508Z,6.10
2019-02-15T18:55:28.787Z,6.10
2019-02-15T18:57:58.063Z,6.00
2019-02-15T19:00:27.768Z,5.90
2019-02-15T19:02:57.063Z,5.80
2019-02-15T19:05:26.335Z,5.80
2019-02-15T19:07:55.611Z,5.60
2019-02-15T19:10:25.132Z,5.60
2019-02-15T19:12:54.700Z,5.40
2019-02-15T19:15:23.975Z,5.40
2019-02-15T19:17:53.263Z,5.40
2019-02-15T19:20:22.555Z,5.30
2019-02-15T19:22:51.832Z,5.20
2019-02-15T19:25:21.183Z,5.10
2019-02-15T19:27:50.455Z,5.10
2019-02-15T19:30:31.435Z,5.10
2019-02-15T19:33:01.003Z,5.00
2019-02-15T19:35:31.949Z,4.90
2019-02-15T19:38:01.248Z,5.00
2019-02-15T19:40:30.516Z,4.90
2019-02-15T19:43:03.446Z,4.80
2019-02-15T19:45:33.906Z,4.80
2019-02-15T19:48:03.485Z,4.60
2019-02-15T19:50:32.760Z,4.50
2019-02-15T19:53:02.036Z,4.40
2019-02-15T19:55:31.312Z,4.30
2019-02-15T19:58:00.613Z,4.20
2019-02-15T20:00:31.235Z,4.20
2019-02-15T20:03:00.868Z,4.10
2019-02-15T20:05:31.472Z,4.00
2019-02-15T20:08:00.751Z,3.90
2019-02-15T20:10:30.394Z,3.80
2019-02-15T20:13:00.904Z,3.70
2019-02-15T20:15:30.355Z,3.70
2019-02-15T20:17:59.658Z,3.60
2019-02-15T20:20:28.936Z,3.60
2019-02-15T20:22:58.225Z,3.60
2019-02-15T20:25:27.499Z,3.60
2019-02-15T20:27:57.053Z,3.60
2019-02-15T20:30:26.669Z,3.60
2019-02-15T20:32:56.375Z,3.50
2019-02-15T20:35:25.656Z,3.50
2019-02-15T20:37:56.884Z,3.40
2019-02-15T20:40:26.171Z,3.30
2019-02-15T20:42:55.443Z,3.20
2019-02-15T20:45:24.733Z,3.20
2019-02-15T20:47:54.020Z,3.10
2019-02-15T20:50:23.291Z,3.00
2019-02-15T20:52:52.855Z,3.00
2019-02-15T20:55:22.167Z,3.00
2019-02-15T20:57:51.518Z,3.00
2019-02-15T21:00:27.360Z,3.10
2019-02-15T21:02:56.935Z,3.20
2019-02-15T21:05:27.279Z,3.20
2019-02-15T21:07:56.873Z,3.20
2019-02-15T21:10:26.162Z,3.20
2019-02-15T21:12:55.798Z,3.10
2019-02-15T21:15:25.071Z,3.00
2019-02-15T21:17:54.699Z,3.10
2019-02-15T21:20:24.679Z,3.10
2019-02-15T21:22:55.388Z,3.00
2019-02-15T21:25:36.881Z,2.80
2019-02-15T21:28:06.180Z,2.80
2019-02-15T21:30:35.743Z,3.10
2019-02-15T21:33:05.019Z,3.20
2019-02-15T21:35:34.556Z,3.20
2019-02-15T21:38:04.684Z,3.20
2019-02-15T21:40:35.453Z,2.90
2019-02-15T21:43:05.028Z,2.80
2019-02-15T21:45:34.352Z,2.70
2019-02-15T21:48:03.948Z,2.60
2019-02-15T21:50:33.225Z,2.40
2019-02-15T21:53:02.860Z,2.50
2019-02-15T21:55:32.140Z,2.50
2019-02-15T21:58:01.915Z,2.50
2019-02-15T22:00:31.756Z,2.40
2019-02-15T22:03:01.143Z,2.40
2019-02-15T22:05:30.711Z,2.40
2019-02-15T22:07:59.983Z,2.30
2019-02-15T22:10:29.261Z,2.20
2019-02-15T22:12:59.456Z,2.20
2019-02-15T22:15:28.731Z,2.10
2019-02-15T22:17:58.255Z,2.10
2019-02-15T22:20:27.908Z,2.20
2019-02-15T22:22:57.480Z,2.20
2019-02-15T22:25:27.100Z,2.10
2019-02-15T22:27:56.401Z,2.10
2019-02-15T22:30:25.690Z,2.10
2019-02-15T22:32:55.318Z,2.00
2019-02-15T22:35:24.598Z,2.00
2019-02-15T22:37:53.871Z,2.00
2019-02-15T22:40:38.675Z,2.00
2019-02-15T22:43:16.839Z,1.90
2019-02-15T22:45:46.396Z,1.90
2019-02-15T22:48:16.000Z,1.90
2019-02-15T22:50:45.612Z,1.80
2019-02-15T22:53:15.224Z,1.70
2019-02-15T22:55:44.500Z,1.70
2019-02-15T22:58:14.953Z,1.70
2019-02-15T23:00:51.659Z,1.60
2019-02-15T23:03:23.699Z,1.50
2019-02-15T23:05:53.313Z,1.50
2019-02-15T23:08:22.591Z,1.50
2019-02-15T23:10:51.942Z,1.50
2019-02-15T23:13:22.137Z,1.40
2019-02-15T23:15:51.420Z,1.30
2019-02-15T23:18:20.760Z,1.30
2019-02-15T23:20:50.051Z,1.20
2019-02-15T23:23:19.664Z,1.30
2019-02-15T23:25:48.940Z,1.30
2019-02-15T23:28:18.473Z,1.20
2019-02-15T23:30:47.748Z,1.10
2019-02-15T23:33:17.398Z,1.10
2019-02-15T23:35:46.671Z,1.10
2019-02-15T23:38:16.313Z,1.10
2019-02-15T23:40:46.055Z,1.10
2019-02-15T23:43:15.344Z,1.20
2019-02-15T23:45:45.123Z,1.20
2019-02-15T23:48:14.752Z,1.20
2019-02-15T23:50:44.091Z,1.20
2019-02-15T23:53:13.374Z,1.20
2019-02-15T23:55:42.968Z,1.20
2019-02-15T23:58:12.584Z,1.30
